VDPPVDSR

Guest
Details From VDPP - Phnom Penh Intl
To VDSR - Siem Reap
Flight Number -
Tags generated
Created
Modified
Stats Distance 128 nm / 237 km
Max Altitude 6,000 ft / 1,829 m
Waypoints 4
Social Downloads 8
Likes 0
Share

Download

Looking for another format? Having issues loading an existing format? Contact us
Advertisement - Login to hide

Notes

Basic altitude profile: - Ascent Rate: 2500ft/min - Ascent Speed: 250kts - Cruise Altitude: 35000ft - Cruise Speed: 420kts - Descent Rate: 1500ft/min - Descent Speed: 250kts Options: - Use NATs: yes - Use PACOTS: yes - Use low airways: yes - Use high airways: yes

Route

VDPP PNH W1 SRE VDSR

ID Type Via Altitude (ft/m) Position (lat/lon) Dist (leg/tot) Name
O VDPP APT - 0 / 0 11.54654 / 104.84414 - / 0 nm Phnom Penh Intl
PNH VOR - 0 / 0 11.54667 / 104.84167 0 / 0 nm PHNOM PENH VOR-DME
SRE VOR W1 (AWY-LO) 6,000 / 1,829 13.41500 / 103.82167 127 / 127 nm SIEM REAP VOR-DME
O VDSR APT - 0 / 0 13.41067 / 103.81283 0 / 127 nm Siem Reap

Altitude Profile

Advertisement - Login to hide

VDPP

Details ICAO VDPP (PNH)
Name Phnom Penh Intl
Region Cambodia
Timezone Asia/Phnom_Penh (UTC+7.0)
Stats Elevation 40 ft / 12 m (AMSL)
Location 11.546500° 104.844000°
Runways 1
Magnetic Variation 0.543° W

METAR

VDPP 032300Z 04011KT 9999 FEW017 23/16 Q1011

Decode

TAF

TAF VDPP 031700Z 0318/0412 04009KT 9999 SCT017= TAF VDSR 031700Z 0318/0412 02009KT 9999 SCT017

Decode

Departure Runways

ID Width Length Bearing (true/mag) Surface Threshold Overrun Markings Lighting
05 148 ft / 45 m 9,858 ft / 3,005 m 45.57° / 46.11° ASPHALT 0 ft / 0 m 666 ft / 203 m PREC-APP EDGE THRESHOLD
23 148 ft / 45 m 9,858 ft / 3,005 m 225.58° / 226.12° ASPHALT 492 ft / 150 m 653 ft / 199 m PREC-APP EDGE THRESHOLD

VDSR

Details ICAO VDSR (REP)
Name Siem Reap Intl
Region Cambodia
Timezone Asia/Phnom_Penh (UTC+7.0)
Stats Elevation 59 ft / 18 m (AMSL)
Location 13.410900° 103.812000°
Runways 1
Magnetic Variation 0.652° W

METAR

VDSR 032300Z 36006KT 9000 SCT015 22/17 Q1012

Decode

TAF

TAF VDSR 021700Z 0218/0312 04010KT 9999 SCT017 SCT040 TEMPO 0306/0311 SCT015 FEW017CB

Decode

Destination Runways

ID Width Length Bearing (true/mag) Surface Threshold Overrun Markings Lighting
05 148 ft / 45 m 8,374 ft / 2,552 m 48.27° / 48.92° ASPHALT 0 ft / 0 m 0 ft / 0 m PREC-APP CENTERLINE EDGE THRESHOLD SALS
23 148 ft / 45 m 8,374 ft / 2,552 m 228.27° / 228.92° ASPHALT 0 ft / 0 m 0 ft / 0 m PREC-APP CENTERLINE EDGE THRESHOLD SALS

Popular Alternatives